sensor_id;sensor_type;location;lat;lon;timestamp;P1;durP1;ratioP1;P2;durP2;ratioP2
79710;SDS011;69465;51.630;6.570;2023-05-09T00:02:22;21.27;;;17.90;;
79710;SDS011;69465;51.630;6.570;2023-05-09T00:04:49;22.17;;;18.83;;
79710;SDS011;69465;51.630;6.570;2023-05-09T00:07:15;20.77;;;18.17;;
79710;SDS011;69465;51.630;6.570;2023-05-09T00:09:42;24.37;;;19.80;;
79710;SDS011;69465;51.630;6.570;2023-05-09T00:12:09;21.00;;;18.63;;
79710;SDS011;69465;51.630;6.570;2023-05-09T00:14:36;21.83;;;18.27;;
79710;SDS011;69465;51.630;6.570;2023-05-09T00:17:03;20.87;;;17.63;;
79710;SDS011;69465;51.630;6.570;2023-05-09T00:19:29;24.60;;;18.37;;
79710;SDS011;69465;51.630;6.570;2023-05-09T00:21:56;23.47;;;19.50;;
79710;SDS011;69465;51.630;6.570;2023-05-09T00:24:23;22.10;;;18.63;;
79710;SDS011;69465;51.630;6.570;2023-05-09T00:26:50;20.60;;;17.60;;
79710;SDS011;69465;51.630;6.570;2023-05-09T00:29:16;23.53;;;19.37;;
79710;SDS011;69465;51.630;6.570;2023-05-09T00:31:43;23.60;;;19.53;;
79710;SDS011;69465;51.630;6.570;2023-05-09T00:34:10;24.63;;;20.60;;
79710;SDS011;69465;51.630;6.570;2023-05-09T00:36:36;23.83;;;19.60;;
79710;SDS011;69465;51.630;6.570;2023-05-09T00:39:03;25.90;;;20.17;;
79710;SDS011;69465;51.630;6.570;2023-05-09T00:41:29;23.03;;;19.50;;
79710;SDS011;69465;51.630;6.570;2023-05-09T00:43:56;24.13;;;19.87;;
79710;SDS011;69465;51.630;6.570;2023-05-09T00:46:23;22.90;;;20.33;;
79710;SDS011;69465;51.630;6.570;2023-05-09T00:48:49;24.67;;;20.47;;
79710;SDS011;69465;51.630;6.570;2023-05-09T00:51:16;21.93;;;19.43;;
79710;SDS011;69465;51.630;6.570;2023-05-09T00:53:43;22.23;;;19.83;;
79710;SDS011;69465;51.630;6.570;2023-05-09T00:56:11;24.27;;;21.40;;
79710;SDS011;69465;51.630;6.570;2023-05-09T00:58:37;24.03;;;20.50;;
79710;SDS011;69465;51.630;6.570;2023-05-09T01:01:04;25.33;;;21.47;;
79710;SDS011;69465;51.630;6.570;2023-05-09T01:03:31;27.03;;;22.23;;
79710;SDS011;69465;51.630;6.570;2023-05-09T01:06:02;25.77;;;21.87;;
79710;SDS011;69465;51.630;6.570;2023-05-09T01:08:52;26.47;;;22.37;;
79710;SDS011;69465;51.630;6.570;2023-05-09T01:11:35;24.07;;;20.87;;
79710;SDS011;69465;51.630;6.570;2023-05-09T01:14:29;26.10;;;21.87;;
79710;SDS011;69465;51.630;6.570;2023-05-09T01:31:06;25.80;;;22.07;;
79710;SDS011;69465;51.630;6.570;2023-05-09T01:33:35;26.17;;;23.17;;
79710;SDS011;69465;51.630;6.570;2023-05-09T01:36:07;27.10;;;22.23;;
79710;SDS011;69465;51.630;6.570;2023-05-09T01:38:38;29.53;;;22.87;;
79710;SDS011;69465;51.630;6.570;2023-05-09T01:41:07;30.87;;;24.20;;
79710;SDS011;69465;51.630;6.570;2023-05-09T01:43:36;29.63;;;24.30;;
79710;SDS011;69465;51.630;6.570;2023-05-09T01:46:04;29.07;;;24.17;;
79710;SDS011;69465;51.630;6.570;2023-05-09T01:48:33;29.87;;;24.87;;
79710;SDS011;69465;51.630;6.570;2023-05-09T01:51:02;28.47;;;24.17;;
79710;SDS011;69465;51.630;6.570;2023-05-09T01:53:29;30.70;;;26.03;;
79710;SDS011;69465;51.630;6.570;2023-05-09T01:55:57;37.70;;;28.13;;
79710;SDS011;69465;51.630;6.570;2023-05-09T01:58:24;38.57;;;29.40;;
79710;SDS011;69465;51.630;6.570;2023-05-09T02:00:52;41.57;;;29.40;;
79710;SDS011;69465;51.630;6.570;2023-05-09T02:03:19;44.50;;;29.43;;
79710;SDS011;69465;51.630;6.570;2023-05-09T02:05:47;50.10;;;34.60;;
79710;SDS011;69465;51.630;6.570;2023-05-09T02:08:15;53.47;;;35.23;;
79710;SDS011;69465;51.630;6.570;2023-05-09T02:10:44;64.23;;;41.40;;
79710;SDS011;69465;51.630;6.570;2023-05-09T02:13:13;64.00;;;42.10;;
79710;SDS011;69465;51.630;6.570;2023-05-09T02:15:39;62.13;;;41.03;;
79710;SDS011;69465;51.630;6.570;2023-05-09T02:18:08;67.03;;;42.47;;
79710;SDS011;69465;51.630;6.570;2023-05-09T02:20:34;66.53;;;42.73;;
79710;SDS011;69465;51.630;6.570;2023-05-09T02:23:01;61.80;;;42.20;;
79710;SDS011;69465;51.630;6.570;2023-05-09T02:25:28;69.63;;;43.33;;
79710;SDS011;69465;51.630;6.570;2023-05-09T02:27:56;64.93;;;42.20;;
79710;SDS011;69465;51.630;6.570;2023-05-09T02:30:25;72.47;;;44.07;;
79710;SDS011;69465;51.630;6.570;2023-05-09T02:32:56;73.47;;;45.20;;
79710;SDS011;69465;51.630;6.570;2023-05-09T02:35:26;71.87;;;43.97;;
79710;SDS011;69465;51.630;6.570;2023-05-09T02:37:54;66.77;;;43.77;;
79710;SDS011;69465;51.630;6.570;2023-05-09T02:40:23;73.80;;;43.97;;
79710;SDS011;69465;51.630;6.570;2023-05-09T02:42:53;78.00;;;47.73;;
79710;SDS011;69465;51.630;6.570;2023-05-09T02:45:20;80.67;;;47.67;;
79710;SDS011;69465;51.630;6.570;2023-05-09T02:47:47;71.47;;;46.27;;
79710;SDS011;69465;51.630;6.570;2023-05-09T02:50:13;79.93;;;47.90;;
79710;SDS011;69465;51.630;6.570;2023-05-09T02:52:40;81.93;;;46.47;;
79710;SDS011;69465;51.630;6.570;2023-05-09T02:55:07;84.13;;;47.40;;
79710;SDS011;69465;51.630;6.570;2023-05-09T02:57:34;76.13;;;45.67;;
79710;SDS011;69465;51.630;6.570;2023-05-09T03:00:01;91.37;;;49.27;;
79710;SDS011;69465;51.630;6.570;2023-05-09T03:02:28;85.00;;;48.20;;
79710;SDS011;69465;51.630;6.570;2023-05-09T03:04:55;89.10;;;49.13;;
79710;SDS011;69465;51.630;6.570;2023-05-09T03:07:21;91.43;;;48.23;;
79710;SDS011;69465;51.630;6.570;2023-05-09T03:09:48;91.10;;;50.60;;
79710;SDS011;69465;51.630;6.570;2023-05-09T03:12:15;96.97;;;51.93;;
79710;SDS011;69465;51.630;6.570;2023-05-09T03:14:41;91.07;;;48.87;;
79710;SDS011;69465;51.630;6.570;2023-05-09T03:17:07;90.47;;;48.90;;
79710;SDS011;69465;51.630;6.570;2023-05-09T03:19:34;88.77;;;47.83;;
79710;SDS011;69465;51.630;6.570;2023-05-09T03:22:01;93.00;;;49.23;;
79710;SDS011;69465;51.630;6.570;2023-05-09T03:24:28;89.80;;;49.90;;
79710;SDS011;69465;51.630;6.570;2023-05-09T03:26:54;96.20;;;52.03;;
79710;SDS011;69465;51.630;6.570;2023-05-09T03:29:22;106.33;;;49.07;;
79710;SDS011;69465;51.630;6.570;2023-05-09T03:31:48;94.23;;;50.20;;
79710;SDS011;69465;51.630;6.570;2023-05-09T03:34:15;85.33;;;47.97;;
79710;SDS011;69465;51.630;6.570;2023-05-09T03:36:42;96.50;;;50.73;;
79710;SDS011;69465;51.630;6.570;2023-05-09T03:39:09;90.33;;;49.23;;
79710;SDS011;69465;51.630;6.570;2023-05-09T03:41:35;93.50;;;49.07;;
79710;SDS011;69465;51.630;6.570;2023-05-09T03:44:03;97.40;;;49.63;;
79710;SDS011;69465;51.630;6.570;2023-05-09T03:46:30;93.83;;;48.03;;
79710;SDS011;69465;51.630;6.570;2023-05-09T03:48:57;91.43;;;49.30;;
79710;SDS011;69465;51.630;6.570;2023-05-09T03:51:23;87.07;;;47.97;;
79710;SDS011;69465;51.630;6.570;2023-05-09T03:53:50;93.40;;;49.83;;
79710;SDS011;69465;51.630;6.570;2023-05-09T03:56:17;99.10;;;51.50;;
79710;SDS011;69465;51.630;6.570;2023-05-09T03:58:43;97.40;;;49.93;;
79710;SDS011;69465;51.630;6.570;2023-05-09T04:01:10;97.57;;;50.23;;
79710;SDS011;69465;51.630;6.570;2023-05-09T04:03:37;92.63;;;47.83;;
79710;SDS011;69465;51.630;6.570;2023-05-09T04:06:04;90.27;;;47.13;;
79710;SDS011;69465;51.630;6.570;2023-05-09T04:08:31;102.30;;;51.03;;
79710;SDS011;69465;51.630;6.570;2023-05-09T04:10:58;93.13;;;49.37;;
79710;SDS011;69465;51.630;6.570;2023-05-09T04:13:25;96.30;;;48.43;;
79710;SDS011;69465;51.630;6.570;2023-05-09T04:15:51;94.93;;;50.80;;
79710;SDS011;69465;51.630;6.570;2023-05-09T04:18:18;98.70;;;49.67;;
79710;SDS011;69465;51.630;6.570;2023-05-09T04:20:45;93.80;;;49.27;;
79710;SDS011;69465;51.630;6.570;2023-05-09T04:23:12;89.40;;;46.80;;
79710;SDS011;69465;51.630;6.570;2023-05-09T04:25:38;101.63;;;49.27;;
79710;SDS011;69465;51.630;6.570;2023-05-09T04:28:05;103.53;;;50.77;;
79710;SDS011;69465;51.630;6.570;2023-05-09T04:30:31;87.87;;;45.20;;
79710;SDS011;69465;51.630;6.570;2023-05-09T04:32:58;100.83;;;50.27;;
79710;SDS011;69465;51.630;6.570;2023-05-09T04:35:25;98.13;;;48.03;;
79710;SDS011;69465;51.630;6.570;2023-05-09T04:37:52;92.63;;;47.20;;
79710;SDS011;69465;51.630;6.570;2023-05-09T04:40:18;92.17;;;48.57;;
79710;SDS011;69465;51.630;6.570;2023-05-09T04:42:45;83.33;;;45.37;;
79710;SDS011;69465;51.630;6.570;2023-05-09T04:45:12;81.57;;;45.57;;
79710;SDS011;69465;51.630;6.570;2023-05-09T04:47:38;79.30;;;44.03;;
79710;SDS011;69465;51.630;6.570;2023-05-09T04:50:06;86.73;;;46.53;;
79710;SDS011;69465;51.630;6.570;2023-05-09T04:52:32;89.57;;;46.87;;
79710;SDS011;69465;51.630;6.570;2023-05-09T04:54:59;88.00;;;44.50;;
79710;SDS011;69465;51.630;6.570;2023-05-09T04:57:26;85.77;;;46.33;;
79710;SDS011;69465;51.630;6.570;2023-05-09T04:59:52;82.63;;;45.47;;
79710;SDS011;69465;51.630;6.570;2023-05-09T05:02:19;85.60;;;45.13;;
79710;SDS011;69465;51.630;6.570;2023-05-09T05:04:45;92.30;;;45.67;;
79710;SDS011;69465;51.630;6.570;2023-05-09T05:07:12;90.03;;;46.77;;
79710;SDS011;69465;51.630;6.570;2023-05-09T05:09:39;87.63;;;47.27;;
79710;SDS011;69465;51.630;6.570;2023-05-09T05:12:06;94.07;;;46.50;;
79710;SDS011;69465;51.630;6.570;2023-05-09T05:14:35;91.67;;;47.13;;
79710;SDS011;69465;51.630;6.570;2023-05-09T05:17:01;88.63;;;47.27;;
79710;SDS011;69465;51.630;6.570;2023-05-09T05:19:28;90.97;;;46.43;;
79710;SDS011;69465;51.630;6.570;2023-05-09T05:21:54;90.60;;;46.50;;
79710;SDS011;69465;51.630;6.570;2023-05-09T05:24:21;85.43;;;44.73;;
79710;SDS011;69465;51.630;6.570;2023-05-09T05:26:48;84.63;;;45.73;;
79710;SDS011;69465;51.630;6.570;2023-05-09T05:29:15;90.70;;;46.60;;
79710;SDS011;69465;51.630;6.570;2023-05-09T05:31:41;87.37;;;45.10;;
79710;SDS011;69465;51.630;6.570;2023-05-09T05:34:08;82.93;;;45.57;;
79710;SDS011;69465;51.630;6.570;2023-05-09T05:36:35;87.97;;;45.33;;
79710;SDS011;69465;51.630;6.570;2023-05-09T05:39:01;81.77;;;44.47;;
79710;SDS011;69465;51.630;6.570;2023-05-09T05:41:28;82.10;;;45.33;;
79710;SDS011;69465;51.630;6.570;2023-05-09T05:43:55;85.57;;;46.20;;
79710;SDS011;69465;51.630;6.570;2023-05-09T05:46:21;79.90;;;41.77;;
79710;SDS011;69465;51.630;6.570;2023-05-09T05:48:48;81.07;;;43.90;;
79710;SDS011;69465;51.630;6.570;2023-05-09T05:51:14;84.20;;;44.93;;
79710;SDS011;69465;51.630;6.570;2023-05-09T05:53:41;86.27;;;44.67;;
79710;SDS011;69465;51.630;6.570;2023-05-09T05:56:08;82.37;;;45.33;;
79710;SDS011;69465;51.630;6.570;2023-05-09T05:58:35;83.00;;;45.20;;
79710;SDS011;69465;51.630;6.570;2023-05-09T06:01:01;84.07;;;44.13;;
79710;SDS011;69465;51.630;6.570;2023-05-09T06:03:28;77.20;;;42.90;;
79710;SDS011;69465;51.630;6.570;2023-05-09T06:05:55;81.93;;;42.87;;
79710;SDS011;69465;51.630;6.570;2023-05-09T06:08:21;70.97;;;40.37;;
79710;SDS011;69465;51.630;6.570;2023-05-09T06:10:48;65.80;;;39.50;;
79710;SDS011;69465;51.630;6.570;2023-05-09T06:13:15;66.07;;;38.40;;
79710;SDS011;69465;51.630;6.570;2023-05-09T06:15:42;67.63;;;38.63;;
79710;SDS011;69465;51.630;6.570;2023-05-09T06:18:08;63.90;;;36.47;;
79710;SDS011;69465;51.630;6.570;2023-05-09T06:20:35;66.57;;;38.00;;
79710;SDS011;69465;51.630;6.570;2023-05-09T06:23:02;63.70;;;37.83;;
79710;SDS011;69465;51.630;6.570;2023-05-09T06:25:28;65.23;;;37.57;;
79710;SDS011;69465;51.630;6.570;2023-05-09T06:27:55;62.77;;;38.50;;
79710;SDS011;69465;51.630;6.570;2023-05-09T06:30:21;65.90;;;39.70;;
79710;SDS011;69465;51.630;6.570;2023-05-09T06:32:52;62.63;;;38.37;;
79710;SDS011;69465;51.630;6.570;2023-05-09T06:35:20;64.73;;;38.87;;
79710;SDS011;69465;51.630;6.570;2023-05-09T06:37:47;63.37;;;38.13;;
79710;SDS011;69465;51.630;6.570;2023-05-09T06:40:14;65.17;;;39.60;;
79710;SDS011;69465;51.630;6.570;2023-05-09T06:42:41;64.70;;;38.70;;
79710;SDS011;69465;51.630;6.570;2023-05-09T06:45:08;58.50;;;36.63;;
79710;SDS011;69465;51.630;6.570;2023-05-09T06:47:35;60.53;;;37.90;;
79710;SDS011;69465;51.630;6.570;2023-05-09T06:50:02;53.87;;;34.20;;
79710;SDS011;69465;51.630;6.570;2023-05-09T06:52:29;60.17;;;36.13;;
79710;SDS011;69465;51.630;6.570;2023-05-09T06:54:55;54.60;;;34.23;;
79710;SDS011;69465;51.630;6.570;2023-05-09T06:57:22;52.40;;;35.33;;
79710;SDS011;69465;51.630;6.570;2023-05-09T06:59:48;53.53;;;33.63;;
79710;SDS011;69465;51.630;6.570;2023-05-09T07:02:15;51.87;;;33.63;;
79710;SDS011;69465;51.630;6.570;2023-05-09T07:04:42;51.23;;;32.10;;
79710;SDS011;69465;51.630;6.570;2023-05-09T07:07:08;50.77;;;33.47;;
79710;SDS011;69465;51.630;6.570;2023-05-09T07:09:35;48.63;;;31.17;;
79710;SDS011;69465;51.630;6.570;2023-05-09T07:12:02;46.10;;;31.40;;
79710;SDS011;69465;51.630;6.570;2023-05-09T07:14:29;47.83;;;30.23;;
79710;SDS011;69465;51.630;6.570;2023-05-09T07:16:56;40.10;;;27.93;;
79710;SDS011;69465;51.630;6.570;2023-05-09T07:19:42;42.57;;;27.33;;
79710;SDS011;69465;51.630;6.570;2023-05-09T07:22:09;42.50;;;27.07;;
79710;SDS011;69465;51.630;6.570;2023-05-09T07:24:36;39.40;;;26.77;;
79710;SDS011;69465;51.630;6.570;2023-05-09T07:27:03;40.67;;;26.23;;
79710;SDS011;69465;51.630;6.570;2023-05-09T07:29:29;42.40;;;27.57;;
79710;SDS011;69465;51.630;6.570;2023-05-09T07:31:56;41.47;;;27.20;;
79710;SDS011;69465;51.630;6.570;2023-05-09T07:34:23;39.17;;;27.83;;
79710;SDS011;69465;51.630;6.570;2023-05-09T07:36:49;45.27;;;28.63;;
79710;SDS011;69465;51.630;6.570;2023-05-09T07:39:16;42.13;;;28.77;;
79710;SDS011;69465;51.630;6.570;2023-05-09T07:41:43;41.63;;;28.80;;
79710;SDS011;69465;51.630;6.570;2023-05-09T07:44:09;47.00;;;30.30;;
79710;SDS011;69465;51.630;6.570;2023-05-09T07:46:36;46.53;;;31.13;;
79710;SDS011;69465;51.630;6.570;2023-05-09T07:49:03;44.27;;;29.33;;
79710;SDS011;69465;51.630;6.570;2023-05-09T07:51:29;48.37;;;31.30;;
79710;SDS011;69465;51.630;6.570;2023-05-09T07:53:56;49.07;;;31.17;;
79710;SDS011;69465;51.630;6.570;2023-05-09T07:56:23;49.73;;;32.03;;
79710;SDS011;69465;51.630;6.570;2023-05-09T07:58:49;49.10;;;31.60;;
79710;SDS011;69465;51.630;6.570;2023-05-09T08:01:19;47.03;;;30.97;;
79710;SDS011;69465;51.630;6.570;2023-05-09T08:03:45;47.13;;;31.07;;
79710;SDS011;69465;51.630;6.570;2023-05-09T08:06:12;41.93;;;29.77;;
79710;SDS011;69465;51.630;6.570;2023-05-09T08:08:38;43.37;;;29.53;;
79710;SDS011;69465;51.630;6.570;2023-05-09T08:11:05;43.80;;;30.03;;
79710;SDS011;69465;51.630;6.570;2023-05-09T08:13:32;44.53;;;31.17;;
79710;SDS011;69465;51.630;6.570;2023-05-09T08:15:59;43.70;;;32.33;;
79710;SDS011;69465;51.630;6.570;2023-05-09T08:18:26;43.00;;;32.43;;
79710;SDS011;69465;51.630;6.570;2023-05-09T08:20:52;39.97;;;31.60;;
79710;SDS011;69465;51.630;6.570;2023-05-09T08:23:19;44.10;;;32.73;;
79710;SDS011;69465;51.630;6.570;2023-05-09T08:25:46;40.03;;;31.57;;
79710;SDS011;69465;51.630;6.570;2023-05-09T08:28:12;38.23;;;30.00;;
79710;SDS011;69465;51.630;6.570;2023-05-09T08:30:39;36.50;;;29.33;;
79710;SDS011;69465;51.630;6.570;2023-05-09T08:33:06;30.17;;;23.90;;
79710;SDS011;69465;51.630;6.570;2023-05-09T08:35:33;30.27;;;24.70;;
79710;SDS011;69465;51.630;6.570;2023-05-09T08:37:59;30.80;;;24.93;;
79710;SDS011;69465;51.630;6.570;2023-05-09T08:40:26;28.00;;;23.90;;
79710;SDS011;69465;51.630;6.570;2023-05-09T08:42:53;24.43;;;21.63;;
79710;SDS011;69465;51.630;6.570;2023-05-09T08:45:22;24.00;;;21.40;;
79710;SDS011;69465;51.630;6.570;2023-05-09T08:47:53;26.63;;;21.90;;
79710;SDS011;69465;51.630;6.570;2023-05-09T08:50:21;24.30;;;21.03;;
79710;SDS011;69465;51.630;6.570;2023-05-09T08:52:48;25.07;;;19.77;;
79710;SDS011;69465;51.630;6.570;2023-05-09T08:55:16;17.60;;;15.37;;
79710;SDS011;69465;51.630;6.570;2023-05-09T08:57:44;17.20;;;15.40;;
79710;SDS011;69465;51.630;6.570;2023-05-09T09:00:11;17.53;;;15.27;;
79710;SDS011;69465;51.630;6.570;2023-05-09T09:02:40;20.07;;;16.43;;
79710;SDS011;69465;51.630;6.570;2023-05-09T09:05:07;17.87;;;15.97;;
79710;SDS011;69465;51.630;6.570;2023-05-09T09:07:54;16.50;;;13.87;;
79710;SDS011;69465;51.630;6.570;2023-05-09T09:10:22;15.23;;;13.50;;
79710;SDS011;69465;51.630;6.570;2023-05-09T09:12:50;12.23;;;10.93;;
79710;SDS011;69465;51.630;6.570;2023-05-09T09:15:18;12.23;;;10.90;;
79710;SDS011;69465;51.630;6.570;2023-05-09T09:17:47;12.10;;;10.10;;
79710;SDS011;69465;51.630;6.570;2023-05-09T09:20:17;12.53;;;11.27;;
79710;SDS011;69465;51.630;6.570;2023-05-09T09:22:46;10.87;;;9.73;;
79710;SDS011;69465;51.630;6.570;2023-05-09T09:25:14;11.93;;;9.87;;
79710;SDS011;69465;51.630;6.570;2023-05-09T09:27:40;11.67;;;9.37;;
79710;SDS011;69465;51.630;6.570;2023-05-09T09:30:08;12.10;;;10.87;;
79710;SDS011;69465;51.630;6.570;2023-05-09T09:32:36;13.03;;;10.03;;
79710;SDS011;69465;51.630;6.570;2023-05-09T09:35:07;13.10;;;8.90;;
79710;SDS011;69465;51.630;6.570;2023-05-09T09:37:36;11.93;;;9.13;;
79710;SDS011;69465;51.630;6.570;2023-05-09T09:40:05;11.13;;;8.57;;
79710;SDS011;69465;51.630;6.570;2023-05-09T09:42:39;10.07;;;9.00;;
79710;SDS011;69465;51.630;6.570;2023-05-09T09:45:14;13.63;;;10.70;;
79710;SDS011;69465;51.630;6.570;2023-05-09T09:47:42;12.20;;;9.20;;
79710;SDS011;69465;51.630;6.570;2023-05-09T09:50:13;11.43;;;9.07;;
79710;SDS011;69465;51.630;6.570;2023-05-09T09:52:48;14.13;;;9.33;;
79710;SDS011;69465;51.630;6.570;2023-05-09T09:55:15;12.10;;;10.20;;
79710;SDS011;69465;51.630;6.570;2023-05-09T09:57:42;13.50;;;11.03;;
79710;SDS011;69465;51.630;6.570;2023-05-09T10:00:13;15.20;;;10.63;;
79710;SDS011;69465;51.630;6.570;2023-05-09T10:02:48;12.07;;;9.33;;
79710;SDS011;69465;51.630;6.570;2023-05-09T10:05:26;13.30;;;9.80;;
79710;SDS011;69465;51.630;6.570;2023-05-09T10:07:55;13.17;;;9.50;;
79710;SDS011;69465;51.630;6.570;2023-05-09T10:10:27;12.27;;;9.20;;
79710;SDS011;69465;51.630;6.570;2023-05-09T10:13:09;12.10;;;9.57;;
79710;SDS011;69465;51.630;6.570;2023-05-09T10:15:36;13.57;;;10.40;;
79710;SDS011;69465;51.630;6.570;2023-05-09T10:18:17;15.53;;;11.10;;
79710;SDS011;69465;51.630;6.570;2023-05-09T10:20:49;11.30;;;8.73;;
79710;SDS011;69465;51.630;6.570;2023-05-09T10:23:16;11.83;;;9.10;;
79710;SDS011;69465;51.630;6.570;2023-05-09T10:26:27;10.53;;;8.03;;
79710;SDS011;69465;51.630;6.570;2023-05-09T10:28:42;10.07;;;8.23;;
79710;SDS011;69465;51.630;6.570;2023-05-09T10:31:13;13.93;;;8.77;;
79710;SDS011;69465;51.630;6.570;2023-05-09T10:33:48;13.30;;;9.40;;
79710;SDS011;69465;51.630;6.570;2023-05-09T10:36:16;12.33;;;9.60;;
79710;SDS011;69465;51.630;6.570;2023-05-09T10:38:47;14.57;;;10.47;;
79710;SDS011;69465;51.630;6.570;2023-05-09T10:41:16;15.33;;;9.50;;
79710;SDS011;69465;51.630;6.570;2023-05-09T10:43:43;13.27;;;9.93;;
79710;SDS011;69465;51.630;6.570;2023-05-09T10:46:11;13.93;;;8.97;;
79710;SDS011;69465;51.630;6.570;2023-05-09T10:48:38;12.73;;;9.33;;
79710;SDS011;69465;51.630;6.570;2023-05-09T10:51:06;14.63;;;9.70;;
79710;SDS011;69465;51.630;6.570;2023-05-09T10:56:07;12.80;;;9.33;;
79710;SDS011;69465;51.630;6.570;2023-05-09T10:58:34;13.10;;;10.57;;
79710;SDS011;69465;51.630;6.570;2023-05-09T11:01:01;11.43;;;9.43;;
79710;SDS011;69465;51.630;6.570;2023-05-09T11:09:24;13.93;;;10.90;;
79710;SDS011;69465;51.630;6.570;2023-05-09T11:11:55;13.60;;;10.50;;
79710;SDS011;69465;51.630;6.570;2023-05-09T11:17:10;12.50;;;10.83;;
79710;SDS011;69465;51.630;6.570;2023-05-09T11:19:56;10.73;;;9.63;;
79710;SDS011;69465;51.630;6.570;2023-05-09T11:22:25;10.77;;;9.37;;
79710;SDS011;69465;51.630;6.570;2023-05-09T11:25:01;10.50;;;9.40;;
79710;SDS011;69465;51.630;6.570;2023-05-09T11:27:35;11.87;;;10.57;;
79710;SDS011;69465;51.630;6.570;2023-05-09T11:30:12;13.70;;;9.30;;
79710;SDS011;69465;51.630;6.570;2023-05-09T11:32:41;10.77;;;9.63;;
79710;SDS011;69465;51.630;6.570;2023-05-09T11:35:15;9.87;;;8.83;;
79710;SDS011;69465;51.630;6.570;2023-05-09T11:40:22;11.73;;;8.80;;
79710;SDS011;69465;51.630;6.570;2023-05-09T11:42:50;11.57;;;8.47;;
79710;SDS011;69465;51.630;6.570;2023-05-09T11:45:19;10.87;;;9.40;;
79710;SDS011;69465;51.630;6.570;2023-05-09T11:47:46;11.00;;;7.70;;
79710;SDS011;69465;51.630;6.570;2023-05-09T11:50:14;9.27;;;7.83;;
79710;SDS011;69465;51.630;6.570;2023-05-09T11:52:42;8.43;;;7.23;;
79710;SDS011;69465;51.630;6.570;2023-05-09T11:55:09;8.80;;;7.90;;
79710;SDS011;69465;51.630;6.570;2023-05-09T11:57:44;9.47;;;7.23;;
79710;SDS011;69465;51.630;6.570;2023-05-09T12:00:14;7.87;;;6.73;;
79710;SDS011;69465;51.630;6.570;2023-05-09T12:02:45;9.23;;;6.73;;
79710;SDS011;69465;51.630;6.570;2023-05-09T12:05:13;7.93;;;7.10;;
79710;SDS011;69465;51.630;6.570;2023-05-09T12:07:41;7.67;;;5.90;;
79710;SDS011;69465;51.630;6.570;2023-05-09T12:10:09;8.23;;;7.30;;
79710;SDS011;69465;51.630;6.570;2023-05-09T12:12:41;7.67;;;6.93;;
79710;SDS011;69465;51.630;6.570;2023-05-09T12:15:09;8.63;;;6.33;;
79710;SDS011;69465;51.630;6.570;2023-05-09T12:17:36;10.67;;;8.13;;
79710;SDS011;69465;51.630;6.570;2023-05-09T12:20:03;9.60;;;7.73;;
79710;SDS011;69465;51.630;6.570;2023-05-09T12:22:30;10.20;;;8.00;;
79710;SDS011;69465;51.630;6.570;2023-05-09T12:25:03;10.97;;;9.07;;
79710;SDS011;69465;51.630;6.570;2023-05-09T12:27:34;10.63;;;9.53;;
79710;SDS011;69465;51.630;6.570;2023-05-09T12:30:03;12.83;;;10.37;;
79710;SDS011;69465;51.630;6.570;2023-05-09T12:32:30;11.77;;;10.33;;
79710;SDS011;69465;51.630;6.570;2023-05-09T12:34:58;10.70;;;9.70;;
79710;SDS011;69465;51.630;6.570;2023-05-09T12:37:25;11.67;;;9.90;;
79710;SDS011;69465;51.630;6.570;2023-05-09T12:40:10;11.37;;;10.10;;
79710;SDS011;69465;51.630;6.570;2023-05-09T12:42:37;10.90;;;9.63;;
79710;SDS011;69465;51.630;6.570;2023-05-09T12:45:06;11.80;;;10.40;;
79710;SDS011;69465;51.630;6.570;2023-05-09T12:47:33;10.70;;;9.60;;
79710;SDS011;69465;51.630;6.570;2023-05-09T12:50:01;11.70;;;10.13;;
79710;SDS011;69465;51.630;6.570;2023-05-09T12:52:33;11.90;;;10.53;;
79710;SDS011;69465;51.630;6.570;2023-05-09T12:55:12;11.70;;;10.50;;
79710;SDS011;69465;51.630;6.570;2023-05-09T12:57:39;12.07;;;10.87;;
79710;SDS011;69465;51.630;6.570;2023-05-09T13:00:07;15.67;;;12.83;;
79710;SDS011;69465;51.630;6.570;2023-05-09T13:02:35;17.37;;;14.07;;
79710;SDS011;69465;51.630;6.570;2023-05-09T13:07:42;16.93;;;15.27;;
79710;SDS011;69465;51.630;6.570;2023-05-09T13:10:23;15.87;;;14.27;;
79710;SDS011;69465;51.630;6.570;2023-05-09T13:12:50;16.10;;;14.37;;
79710;SDS011;69465;51.630;6.570;2023-05-09T13:15:18;21.67;;;16.43;;
79710;SDS011;69465;51.630;6.570;2023-05-09T13:17:49;23.23;;;18.03;;
79710;SDS011;69465;51.630;6.570;2023-05-09T13:20:16;21.20;;;16.63;;
79710;SDS011;69465;51.630;6.570;2023-05-09T13:22:44;22.37;;;16.90;;
79710;SDS011;69465;51.630;6.570;2023-05-09T13:25:12;20.70;;;16.10;;
79710;SDS011;69465;51.630;6.570;2023-05-09T13:27:38;22.83;;;17.40;;
79710;SDS011;69465;51.630;6.570;2023-05-09T13:30:05;22.87;;;17.93;;
79710;SDS011;69465;51.630;6.570;2023-05-09T13:32:33;19.77;;;17.10;;
79710;SDS011;69465;51.630;6.570;2023-05-09T13:34:59;24.17;;;17.93;;
79710;SDS011;69465;51.630;6.570;2023-05-09T13:37:26;21.07;;;18.00;;
79710;SDS011;69465;51.630;6.570;2023-05-09T13:39:53;22.90;;;18.37;;
79710;SDS011;69465;51.630;6.570;2023-05-09T13:42:20;23.13;;;18.40;;
79710;SDS011;69465;51.630;6.570;2023-05-09T13:44:47;19.60;;;17.40;;
79710;SDS011;69465;51.630;6.570;2023-05-09T13:47:14;22.47;;;17.43;;
79710;SDS011;69465;51.630;6.570;2023-05-09T13:49:40;21.17;;;17.87;;
79710;SDS011;69465;51.630;6.570;2023-05-09T13:52:07;20.43;;;16.43;;
79710;SDS011;69465;51.630;6.570;2023-05-09T13:54:33;20.50;;;16.17;;
79710;SDS011;69465;51.630;6.570;2023-05-09T13:57:03;15.57;;;13.87;;
79710;SDS011;69465;51.630;6.570;2023-05-09T13:59:30;14.97;;;12.50;;
79710;SDS011;69465;51.630;6.570;2023-05-09T14:01:57;13.67;;;11.90;;
79710;SDS011;69465;51.630;6.570;2023-05-09T14:04:25;16.90;;;13.67;;
79710;SDS011;69465;51.630;6.570;2023-05-09T14:06:52;13.63;;;12.07;;
79710;SDS011;69465;51.630;6.570;2023-05-09T14:09:20;16.67;;;12.10;;
79710;SDS011;69465;51.630;6.570;2023-05-09T14:11:48;14.40;;;12.53;;
79710;SDS011;69465;51.630;6.570;2023-05-09T14:14:15;15.77;;;12.37;;
79710;SDS011;69465;51.630;6.570;2023-05-09T14:16:41;14.70;;;11.63;;
79710;SDS011;69465;51.630;6.570;2023-05-09T14:19:08;14.23;;;12.73;;
79710;SDS011;69465;51.630;6.570;2023-05-09T14:21:35;7.53;;;5.60;;
79710;SDS011;69465;51.630;6.570;2023-05-09T14:24:01;5.13;;;4.60;;
79710;SDS011;69465;51.630;6.570;2023-05-09T14:26:29;5.27;;;4.73;;
79710;SDS011;69465;51.630;6.570;2023-05-09T14:28:55;5.70;;;5.00;;
79710;SDS011;69465;51.630;6.570;2023-05-09T14:31:22;5.13;;;4.37;;
79710;SDS011;69465;51.630;6.570;2023-05-09T14:33:48;4.53;;;4.13;;
79710;SDS011;69465;51.630;6.570;2023-05-09T14:36:15;5.53;;;4.50;;
79710;SDS011;69465;51.630;6.570;2023-05-09T14:38:42;4.33;;;4.00;;
79710;SDS011;69465;51.630;6.570;2023-05-09T14:41:08;4.17;;;3.70;;
79710;SDS011;69465;51.630;6.570;2023-05-09T14:43:35;4.30;;;3.90;;
79710;SDS011;69465;51.630;6.570;2023-05-09T14:46:01;4.30;;;3.90;;
79710;SDS011;69465;51.630;6.570;2023-05-09T14:48:28;4.40;;;3.60;;
79710;SDS011;69465;51.630;6.570;2023-05-09T14:50:54;6.80;;;3.77;;
79710;SDS011;69465;51.630;6.570;2023-05-09T14:53:21;4.20;;;3.37;;
79710;SDS011;69465;51.630;6.570;2023-05-09T14:55:49;3.10;;;2.83;;
79710;SDS011;69465;51.630;6.570;2023-05-09T14:58:15;4.57;;;3.20;;
79710;SDS011;69465;51.630;6.570;2023-05-09T15:00:43;3.47;;;3.17;;
79710;SDS011;69465;51.630;6.570;2023-05-09T15:03:11;5.40;;;3.07;;